TimeCDT,TemperatureF,Dew PointF,Humidity,Sea Level PressureIn,VisibilityMPH,Wind Direction,Wind SpeedMPH,Gust SpeedMPH,PrecipitationIn,Events,Conditions,WindDirDegrees,DateUTC
12:54 AM,46.0,39.9,79,30.12,10.0,Calm,Calm,-,N/A,,Clear,0,2013-06-19 05:54:00
1:54 AM,44.1,39.9,85,30.14,10.0,Calm,Calm,-,N/A,,Clear,0,2013-06-19 06:54:00
2:54 AM,43.0,39.0,86,30.13,10.0,Calm,Calm,-,N/A,,Clear,0,2013-06-19 07:54:00
3:54 AM,42.1,39.0,89,30.14,10.0,Calm,Calm,-,N/A,,Clear,0,2013-06-19 08:54:00
4:54 AM,41.0,37.9,89,30.15,10.0,Calm,Calm,-,N/A,,Clear,0,2013-06-19 09:54:00
5:54 AM,44.1,39.9,85,30.14,10.0,Calm,Calm,-,N/A,,Clear,0,2013-06-19 10:54:00
6:54 AM,50.0,42.1,74,30.14,10.0,Calm,Calm,-,N/A,,Clear,0,2013-06-19 11:54:00
7:54 AM,57.9,42.1,56,30.16,10.0,Calm,Calm,-,N/A,,Clear,0,2013-06-19 12:54:00
8:54 AM,64.0,41.0,43,30.15,10.0,South,6.9,-,N/A,,Clear,170,2013-06-19 13:54:00
9:54 AM,66.9,39.0,36,30.14,10.0,SSW,6.9,-,N/A,,Clear,210,2013-06-19 14:54:00
10:54 AM,70.0,37.9,31,30.12,10.0,SSE,9.2,-,N/A,,Clear,160,2013-06-19 15:54:00
11:54 AM,73.0,36.0,26,30.12,10.0,SSE,6.9,-,N/A,,Clear,160,2013-06-19 16:54:00
12:54 PM,73.9,39.0,28,30.10,10.0,South,4.6,-,N/A,,Clear,190,2013-06-19 17:54:00
1:54 PM,75.0,39.0,27,30.08,10.0,SE,8.1,-,N/A,,Clear,140,2013-06-19 18:54:00
2:54 PM,75.0,37.9,26,30.07,10.0,ESE,9.2,-,N/A,,Partly Cloudy,120,2013-06-19 19:54:00
3:54 PM,75.9,39.0,26,30.06,10.0,SSE,4.6,-,N/A,,Clear,150,2013-06-19 20:54:00
4:54 PM,75.9,39.0,26,30.05,10.0,Variable,6.9,-,N/A,,Clear,0,2013-06-19 21:54:00
5:54 PM,75.9,42.1,30,30.04,10.0,South,6.9,-,N/A,,Mostly Cloudy,180,2013-06-19 22:54:00
6:54 PM,73.9,45.0,35,30.04,10.0,SSW,5.8,-,N/A,,Clear,200,2013-06-19 23:54:00
7:54 PM,71.1,48.0,44,30.04,10.0,South,4.6,-,N/A,,Clear,190,2013-06-20 00:54:00
8:54 PM,64.9,46.9,52,30.04,10.0,South,5.8,-,N/A,,Clear,170,2013-06-20 01:54:00
9:54 PM,64.0,48.0,56,30.06,10.0,ESE,6.9,-,N/A,,Clear,120,2013-06-20 02:54:00
10:54 PM,59.0,48.9,69,30.07,10.0,SE,4.6,-,N/A,,Clear,140,2013-06-20 03:54:00
11:54 PM,59.0,48.9,69,30.07,10.0,SE,4.6,-,N/A,,Clear,140,2013-06-20 04:54:00